Airport Name : Davis Monthan AFB

Other Name : Davis Monthan

ICAO : KDMA

IATA : DMA

FAA : DMA

Latitude : 32.166467

Longitude : -110.883144

Country : United States

Local Date and Time : 15 Jul 2024 07:55

 

TAF (Terminal Aerodrome Forecast)

TAF KDMA 151100Z 1511/1617 12009KT 9999 SCT250 QNH3007INS BECMG 1517/1518 29009KT 9999 FEW250 QNH2994INS BECMG 1521/1522 29009KT 9999 VCTS SCT100CB SCT250 QNH2989INS TEMPO 1523/1602 VRB20G30KT 9000 -TSRA BKN080CB BECMG 1601/1602 29009KT 9999 NSW SCT100 BKN250 QNH2990INS BECMG 1606/1607 12009KT 9999 SCT140 QNH2994INS TX37/1521Z TN15/1512Z

 

METAR (METeorological Aerodrome Report)

KDMA 151355Z AUTO 15003KT 10SM CLR 26/18 A3008 RMK AO2 SLP144 T02580177 $

KDMA 151255Z AUTO 00000KT 10SM CLR 25/19 A3007 RMK AO2 SLP141 T02450186 $

KDMA 151155Z AUTO 15006KT 10SM CLR 24/19 A3007 RMK AO2 SLP133 70006 T02440188 10272 20235 55003 $